createdAt,value
2018-11-28T00:01:37.927Z,2.21
2018-11-28T00:04:08.132Z,2.15
2018-11-28T00:06:37.657Z,2.20
2018-11-28T00:09:09.815Z,2.20
2018-11-28T00:11:39.290Z,2.22
2018-11-28T00:14:09.113Z,2.15
2018-11-28T00:16:38.676Z,2.21
2018-11-28T00:19:08.748Z,2.24
2018-11-28T00:21:38.182Z,2.28
2018-11-28T00:24:08.288Z,2.32
2018-11-28T00:26:37.570Z,2.35
2018-11-28T00:29:07.159Z,2.33
2018-11-28T00:31:36.886Z,2.34
2018-11-28T00:34:07.027Z,2.37
2018-11-28T00:36:36.395Z,2.31
2018-11-28T00:39:08.551Z,2.30
2018-11-28T00:41:38.541Z,2.20
2018-11-28T00:44:08.021Z,2.22
2018-11-28T00:46:37.620Z,2.26
2018-11-28T00:49:07.222Z,2.31
2018-11-28T00:51:36.701Z,2.24
2018-11-28T00:54:07.655Z,2.22
2018-11-28T00:56:37.095Z,2.21
2018-11-28T00:59:06.896Z,2.22
2018-11-28T01:01:36.241Z,2.26
2018-11-28T01:04:05.993Z,2.27
2018-11-28T01:06:35.593Z,2.28
2018-11-28T01:09:06.801Z,2.29
2018-11-28T01:11:36.104Z,2.27
2018-11-28T01:14:05.781Z,2.27
2018-11-28T01:16:35.445Z,2.32
2018-11-28T01:19:05.249Z,2.33
2018-11-28T01:21:34.832Z,2.32
2018-11-28T01:24:05.140Z,2.31
2018-11-28T01:26:34.431Z,2.29
2018-11-28T01:29:03.921Z,2.27
2018-11-28T01:31:34.788Z,2.24
2018-11-28T01:34:04.221Z,2.25
2018-11-28T01:36:34.091Z,2.23
2018-11-28T01:39:03.987Z,2.20
2018-11-28T01:41:33.570Z,2.17
2018-11-28T01:44:03.532Z,2.20
2018-11-28T01:46:32.976Z,2.23
2018-11-28T01:49:03.160Z,2.23
2018-11-28T01:51:32.475Z,2.21
2018-11-28T01:54:01.742Z,2.20
2018-11-28T01:56:31.790Z,2.23
2018-11-28T01:59:01.130Z,2.25
2018-11-28T02:01:30.435Z,2.26
2018-11-28T02:04:00.342Z,2.27
2018-11-28T02:06:30.813Z,2.20
2018-11-28T02:09:00.133Z,2.13
2018-11-28T02:11:30.030Z,2.11
2018-11-28T02:13:59.333Z,2.11
2018-11-28T02:16:28.677Z,2.09
2018-11-28T02:18:58.665Z,2.06
2018-11-28T02:21:28.128Z,2.09
2018-11-28T02:23:58.957Z,2.08
2018-11-28T02:26:28.351Z,2.08
2018-11-28T02:28:57.730Z,2.03
2018-11-28T02:31:27.382Z,2.04
2018-11-28T02:33:56.946Z,2.04
2018-11-28T02:36:26.421Z,2.04
2018-11-28T02:38:55.965Z,1.97
2018-11-28T02:41:25.610Z,1.96
2018-11-28T02:43:55.070Z,1.95
2018-11-28T02:46:30.475Z,1.96
2018-11-28T02:49:00.078Z,1.95
2018-11-28T02:51:29.422Z,1.90
2018-11-28T02:53:58.730Z,1.94
2018-11-28T02:56:28.759Z,1.93
2018-11-28T02:58:58.955Z,1.90
2018-11-28T03:01:28.462Z,1.93
2018-11-28T03:03:58.526Z,1.96
2018-11-28T03:06:28.447Z,1.97
2018-11-28T03:08:57.897Z,1.96
2018-11-28T03:11:27.360Z,1.97
2018-11-28T03:13:57.201Z,1.96
2018-11-28T03:16:26.494Z,1.95
2018-11-28T03:18:56.637Z,1.97
2018-11-28T03:21:26.677Z,1.99
2018-11-28T03:23:56.107Z,2.00
2018-11-28T03:26:26.227Z,1.97
2018-11-28T03:28:56.050Z,1.99
2018-11-28T03:31:25.614Z,1.97
2018-11-28T03:33:55.071Z,1.97
2018-11-28T03:36:25.249Z,1.98
2018-11-28T03:38:55.030Z,1.99
2018-11-28T03:41:24.533Z,2.01
2018-11-28T03:43:54.636Z,1.96
2018-11-28T03:46:24.028Z,1.93
2018-11-28T03:48:54.127Z,1.91
2018-11-28T03:51:23.518Z,1.93
2018-11-28T03:53:53.768Z,1.89
2018-11-28T03:56:23.395Z,1.89
2018-11-28T03:58:53.066Z,1.85
2018-11-28T04:01:22.533Z,1.86
2018-11-28T04:03:52.397Z,1.64
2018-11-28T04:06:21.862Z,1.37
2018-11-28T04:08:51.916Z,1.57
2018-11-28T04:11:22.983Z,1.49
2018-11-28T04:13:52.386Z,1.50
2018-11-28T04:16:23.490Z,1.39
2018-11-28T04:18:53.367Z,1.49
2018-11-28T04:21:23.121Z,1.42
2018-11-28T04:23:53.858Z,1.36
2018-11-28T04:26:24.132Z,1.44
2018-11-28T04:28:54.326Z,1.21
2018-11-28T04:31:24.641Z,1.29
2018-11-28T04:33:54.761Z,1.31
2018-11-28T04:36:27.088Z,1.27
2018-11-28T04:38:57.034Z,1.29
2018-11-28T04:41:30.129Z,1.23
2018-11-28T04:44:00.462Z,1.26
2018-11-28T04:46:30.617Z,1.10
2018-11-28T04:49:00.711Z,1.16
2018-11-28T04:51:30.268Z,1.12
2018-11-28T04:54:00.467Z,1.12
2018-11-28T04:56:30.587Z,1.08
2018-11-28T04:59:00.122Z,1.02
2018-11-28T05:01:29.794Z,0.76
2018-11-28T05:03:59.922Z,0.65
2018-11-28T05:07:43.329Z,0.57
2018-11-28T05:10:24.483Z,0.65
2018-11-28T05:12:54.499Z,0.66
2018-11-28T05:15:28.858Z,0.76
2018-11-28T05:17:58.450Z,0.80
2018-11-28T05:20:29.162Z,0.64
2018-11-28T05:22:59.206Z,0.47
2018-11-28T05:25:29.351Z,0.27
2018-11-28T05:27:59.603Z,0.36
2018-11-28T05:30:30.113Z,0.41
2018-11-28T05:33:00.081Z,0.46
2018-11-28T05:35:33.255Z,0.37
2018-11-28T05:38:04.263Z,0.24
2018-11-28T05:40:33.869Z,0.29
2018-11-28T05:43:03.696Z,0.31
2018-11-28T05:45:33.115Z,0.36
2018-11-28T05:48:03.038Z,0.41
2018-11-28T05:50:33.304Z,0.48
2018-11-28T05:53:03.664Z,0.45
2018-11-28T05:55:33.719Z,0.46
2018-11-28T05:58:03.820Z,0.40
2018-11-28T06:00:38.534Z,0.39
2018-11-28T06:03:09.148Z,0.31
2018-11-28T06:05:38.515Z,0.40
2018-11-28T06:08:08.539Z,0.36
2018-11-28T06:10:38.959Z,0.34
2018-11-28T06:13:10.524Z,0.33
2018-11-28T06:15:40.125Z,0.33
2018-11-28T06:18:10.400Z,0.18
2018-11-28T06:20:39.744Z,0.29
2018-11-28T06:23:09.771Z,0.28
2018-11-28T06:25:39.547Z,0.35
2018-11-28T06:28:09.187Z,0.45
2018-11-28T06:30:39.412Z,0.46
2018-11-28T06:33:10.557Z,0.41
2018-11-28T06:35:39.872Z,0.43
2018-11-28T06:38:09.250Z,0.47
2018-11-28T06:40:39.147Z,0.38
2018-11-28T06:43:09.378Z,0.33
2018-11-28T06:45:38.796Z,0.38
2018-11-28T06:48:09.327Z,0.46
2018-11-28T06:50:40.463Z,0.45
2018-11-28T06:53:10.405Z,0.41
2018-11-28T06:55:40.513Z,0.25
2018-11-28T06:58:10.894Z,0.33
2018-11-28T07:00:40.930Z,0.28
2018-11-28T07:03:10.989Z,0.39
2018-11-28T07:05:41.191Z,0.44
2018-11-28T07:08:11.463Z,0.47
2018-11-28T07:10:42.757Z,0.38
2018-11-28T07:13:12.807Z,0.31
2018-11-28T07:15:43.365Z,0.38
2018-11-28T07:18:23.932Z,0.36
2018-11-28T07:20:54.467Z,0.53
2018-11-28T07:23:24.409Z,0.65
2018-11-28T07:25:54.058Z,0.74
2018-11-28T07:28:23.998Z,0.80
2018-11-28T07:30:53.993Z,0.83
2018-11-28T07:33:24.712Z,0.93
2018-11-28T07:35:54.577Z,0.96
2018-11-28T07:38:24.428Z,1.04
2018-11-28T07:40:54.678Z,1.01
2018-11-28T07:43:24.214Z,0.83
2018-11-28T07:45:54.069Z,1.04
2018-11-28T07:48:24.294Z,0.92
2018-11-28T07:50:53.679Z,1.02
2018-11-28T07:53:23.670Z,1.08
2018-11-28T07:55:53.474Z,1.06
2018-11-28T07:58:23.109Z,1.13
2018-11-28T08:00:52.469Z,1.28
2018-11-28T08:03:22.515Z,1.17
2018-11-28T08:05:52.074Z,1.26
2018-11-28T08:08:45.989Z,1.40
2018-11-28T08:11:22.626Z,1.51
2018-11-28T08:13:52.579Z,1.57
2018-11-28T08:16:21.930Z,1.45
2018-11-28T08:18:51.278Z,1.34
2018-11-28T08:21:21.594Z,1.56
2018-11-28T08:23:51.582Z,1.55
2018-11-28T08:26:20.984Z,1.51
2018-11-28T08:28:50.564Z,1.55
2018-11-28T08:31:20.066Z,1.47
2018-11-28T08:33:50.351Z,1.63
2018-11-28T08:36:20.400Z,1.76
2018-11-28T08:38:50.786Z,1.97
2018-11-28T08:41:20.333Z,2.04
2018-11-28T08:43:49.699Z,2.01
2018-11-28T08:46:19.628Z,2.19
2018-11-28T08:48:49.134Z,2.29
2018-11-28T08:51:18.743Z,2.25
2018-11-28T08:53:48.924Z,2.30
2018-11-28T08:56:19.096Z,2.39
2018-11-28T08:58:48.560Z,2.52
2018-11-28T09:01:18.582Z,2.67
2018-11-28T09:03:47.947Z,2.80
2018-11-28T09:06:18.112Z,2.89
2018-11-28T09:08:47.821Z,2.95
2018-11-28T09:11:17.245Z,3.17
2018-11-28T09:13:46.645Z,3.35
2018-11-28T09:16:16.161Z,3.46
2018-11-28T09:18:45.995Z,3.39
2018-11-28T09:21:15.896Z,3.67
2018-11-28T09:23:45.474Z,3.55
2018-11-28T09:26:20.672Z,3.59
2018-11-28T09:28:50.594Z,3.65
2018-11-28T09:31:19.999Z,3.81
2018-11-28T09:33:50.316Z,3.95
2018-11-28T09:36:20.414Z,4.12
2018-11-28T09:38:49.720Z,4.44
2018-11-28T09:41:19.801Z,4.52
2018-11-28T09:43:49.208Z,4.59
2018-11-28T09:46:19.456Z,4.52
2018-11-28T09:48:49.339Z,4.54
2018-11-28T09:51:18.627Z,4.54
2018-11-28T09:53:48.201Z,4.52
2018-11-28T09:56:17.720Z,4.49
2018-11-28T09:58:47.202Z,4.63
2018-11-28T10:01:17.546Z,4.70
2018-11-28T10:03:47.763Z,4.61
2018-11-28T10:06:17.182Z,4.59
2018-11-28T10:08:46.601Z,4.83
2018-11-28T10:11:16.371Z,4.99
2018-11-28T10:13:45.725Z,5.18
2018-11-28T10:16:15.820Z,5.39
2018-11-28T10:18:45.817Z,5.64
2018-11-28T10:21:15.526Z,5.89
2018-11-28T10:23:45.371Z,6.00
2018-11-28T10:26:14.950Z,6.12
2018-11-28T10:28:45.055Z,6.22
2018-11-28T10:31:16.511Z,6.31
2018-11-28T10:33:45.955Z,6.66
2018-11-28T10:36:15.443Z,6.59
2018-11-28T10:38:44.707Z,6.82
2018-11-28T10:41:14.982Z,7.01
2018-11-28T10:43:44.621Z,7.15
2018-11-28T10:46:14.245Z,7.36
2018-11-28T10:48:44.492Z,7.42
2018-11-28T10:51:13.770Z,7.38
2018-11-28T10:53:43.472Z,7.56
2018-11-28T10:56:12.991Z,7.66
2018-11-28T10:58:42.441Z,7.79
2018-11-28T11:01:17.407Z,7.61
2018-11-28T11:03:51.928Z,7.51
2018-11-28T11:06:26.461Z,7.84
2018-11-28T11:09:01.150Z,7.98
2018-11-28T11:11:35.908Z,8.40
2018-11-28T11:14:10.608Z,8.56
2018-11-28T11:16:40.220Z,8.67
2018-11-28T11:19:10.481Z,9.00
2018-11-28T11:21:40.808Z,8.87
2018-11-28T11:24:10.541Z,9.14
2018-11-28T11:26:39.905Z,9.65
2018-11-28T11:29:09.526Z,10.07
2018-11-28T11:31:39.123Z,10.26
2018-11-28T11:34:08.906Z,10.64
2018-11-28T11:36:38.652Z,11.24
2018-11-28T11:39:08.810Z,12.20
2018-11-28T11:41:39.002Z,12.54
2018-11-28T11:44:09.266Z,13.08
2018-11-28T11:46:38.616Z,14.07
2018-11-28T11:49:08.511Z,13.35
2018-11-28T11:51:38.005Z,13.50
2018-11-28T11:54:08.024Z,12.93
2018-11-28T11:56:37.390Z,14.00
2018-11-28T11:59:07.407Z,14.12
2018-11-28T12:01:36.730Z,13.58
2018-11-28T12:04:06.173Z,13.94
2018-11-28T12:06:35.633Z,13.53
2018-11-28T12:09:08.249Z,13.46
2018-11-28T12:11:37.738Z,13.13
2018-11-28T12:14:07.326Z,12.31
2018-11-28T12:16:36.863Z,12.26
2018-11-28T12:19:06.696Z,11.82
2018-11-28T12:21:36.932Z,11.32
2018-11-28T12:24:06.536Z,10.83
2018-11-28T12:26:36.972Z,10.93
2018-11-28T12:29:07.216Z,10.57
2018-11-28T12:31:37.096Z,10.92
2018-11-28T12:34:07.361Z,11.04
2018-11-28T12:36:36.766Z,10.68
2018-11-28T12:39:10.512Z,10.76
2018-11-28T12:41:39.885Z,10.43
2018-11-28T12:44:09.371Z,10.46
2018-11-28T12:46:39.257Z,10.53
2018-11-28T12:49:08.507Z,10.89
2018-11-28T12:51:37.934Z,10.95
2018-11-28T12:54:08.207Z,11.03
2018-11-28T12:56:37.810Z,10.56
2018-11-28T12:59:07.402Z,10.02
2018-11-28T13:01:36.884Z,10.43
2018-11-28T13:04:07.335Z,10.34
2018-11-28T13:06:36.886Z,10.02
2018-11-28T13:09:07.437Z,9.69
2018-11-28T13:11:37.007Z,9.78
2018-11-28T13:14:06.907Z,9.57
2018-11-28T13:16:36.731Z,9.17
2018-11-28T13:19:06.683Z,9.02
2018-11-28T13:21:36.211Z,9.28
2018-11-28T13:24:06.363Z,9.18
2018-11-28T13:26:36.092Z,8.74
2018-11-28T13:29:06.253Z,8.83
2018-11-28T13:31:35.949Z,8.93
2018-11-28T13:34:06.244Z,8.74
2018-11-28T13:36:35.646Z,8.47
2018-11-28T13:39:06.155Z,8.62
2018-11-28T13:41:35.836Z,8.53
2018-11-28T13:44:05.336Z,8.48
2018-11-28T13:46:35.211Z,8.43
2018-11-28T13:49:05.709Z,8.23
2018-11-28T13:51:35.366Z,8.14
2018-11-28T13:54:20.797Z,8.01
2018-11-28T13:59:04.303Z,8.06
2018-11-28T14:01:34.536Z,8.05
2018-11-28T14:04:04.037Z,7.97
2018-11-28T14:06:33.805Z,7.96
2018-11-28T14:09:04.952Z,7.95
2018-11-28T14:11:34.441Z,7.88
2018-11-28T14:14:05.432Z,7.78
2018-11-28T14:16:34.783Z,7.64
2018-11-28T14:19:04.261Z,7.65
2018-11-28T14:21:33.923Z,7.50
2018-11-28T14:24:04.338Z,7.49
2018-11-28T14:26:33.714Z,7.56
2018-11-28T14:29:03.527Z,7.49
2018-11-28T14:31:33.886Z,7.54
2018-11-28T14:34:03.393Z,7.38
2018-11-28T14:36:33.408Z,7.20
2018-11-28T14:39:02.856Z,7.16
2018-11-28T14:41:33.620Z,7.09
2018-11-28T14:44:02.264Z,7.08
2018-11-28T14:46:32.128Z,7.01
2018-11-28T14:49:02.312Z,7.00
2018-11-28T14:51:32.663Z,6.94
2018-11-28T14:54:02.784Z,6.70
2018-11-28T14:56:32.269Z,6.71
2018-11-28T14:59:02.332Z,6.61
2018-11-28T15:01:32.551Z,6.57
2018-11-28T15:04:02.706Z,6.55
2018-11-28T15:06:34.928Z,6.51
2018-11-28T15:09:12.921Z,6.43
2018-11-28T15:11:43.514Z,6.39
2018-11-28T15:14:13.156Z,6.29
2018-11-28T15:16:43.302Z,6.27
2018-11-28T15:19:12.658Z,6.26
2018-11-28T15:21:42.929Z,6.14
2018-11-28T15:24:13.004Z,6.07
2018-11-28T15:26:42.277Z,6.10
2018-11-28T15:29:11.692Z,5.90
2018-11-28T15:31:41.609Z,5.91
2018-11-28T15:34:11.304Z,5.86
2018-11-28T15:36:41.013Z,5.75
2018-11-28T15:39:11.224Z,5.71
2018-11-28T15:41:40.755Z,5.65
2018-11-28T15:44:10.646Z,5.63
2018-11-28T15:46:40.899Z,5.58
2018-11-28T15:49:12.407Z,5.43
2018-11-28T15:51:41.940Z,5.40
2018-11-28T15:54:11.457Z,5.38
2018-11-28T15:56:41.024Z,5.36
2018-11-28T15:59:10.492Z,5.18
2018-11-28T16:01:40.159Z,5.33
2018-11-28T16:04:09.574Z,5.21
2018-11-28T16:06:39.532Z,5.20
2018-11-28T16:09:13.669Z,5.14
2018-11-28T16:11:43.083Z,5.11
2018-11-28T16:14:12.967Z,5.08
2018-11-28T16:16:42.440Z,4.99
2018-11-28T16:19:12.012Z,4.95
2018-11-28T16:21:41.817Z,4.88
2018-11-28T16:24:12.936Z,4.77
2018-11-28T16:26:43.155Z,4.66
2018-11-28T16:29:14.553Z,4.60
2018-11-28T16:31:44.463Z,4.65
2018-11-28T16:34:14.855Z,4.59
2018-11-28T16:36:44.882Z,4.60
2018-11-28T16:39:15.979Z,4.55
2018-11-28T16:41:45.914Z,4.52
2018-11-28T16:44:16.367Z,4.49
2018-11-28T16:46:46.936Z,4.38
2018-11-28T16:49:17.809Z,4.37
2018-11-28T16:51:48.003Z,4.35
2018-11-28T16:54:18.048Z,4.30
2018-11-28T16:56:47.645Z,4.26
2018-11-28T16:59:18.103Z,4.26
2018-11-28T17:01:47.887Z,4.21
2018-11-28T17:04:17.970Z,4.12
2018-11-28T17:06:48.413Z,4.07
2018-11-28T17:09:18.564Z,3.99
2018-11-28T17:11:48.753Z,3.97
2018-11-28T17:14:18.737Z,3.98
2018-11-28T17:16:48.417Z,3.96
2018-11-28T17:19:18.439Z,3.85
2018-11-28T17:21:48.483Z,3.83
2018-11-28T17:24:18.406Z,3.79
2018-11-28T17:26:48.376Z,3.82
2018-11-28T17:29:18.583Z,3.79
2018-11-28T17:31:48.427Z,3.78
2018-11-28T17:34:18.142Z,3.83
2018-11-28T17:36:48.178Z,3.85
2018-11-28T17:39:17.882Z,3.85
2018-11-28T17:41:47.994Z,3.82
2018-11-28T17:44:19.270Z,3.77
2018-11-28T17:46:49.617Z,3.71
2018-11-28T17:49:19.784Z,3.69
2018-11-28T17:51:50.843Z,3.67
2018-11-28T17:54:21.073Z,3.64
2018-11-28T17:56:51.250Z,3.57
2018-11-28T17:59:21.928Z,3.59
2018-11-28T18:01:52.653Z,3.58
2018-11-28T18:04:22.840Z,3.55
2018-11-28T18:06:52.923Z,3.48
2018-11-28T18:09:23.479Z,3.49
2018-11-28T18:11:53.576Z,3.47
2018-11-28T18:14:23.694Z,3.38
2018-11-28T18:16:53.734Z,3.31
2018-11-28T18:19:23.732Z,3.26
2018-11-28T18:21:53.930Z,3.29
2018-11-28T18:24:24.226Z,3.25
2018-11-28T18:26:54.344Z,3.15
2018-11-28T18:29:24.914Z,3.11
2018-11-28T18:31:55.904Z,2.97
2018-11-28T18:34:26.179Z,2.85
2018-11-28T18:36:56.206Z,2.79
2018-11-28T18:39:26.668Z,2.70
2018-11-28T18:41:56.815Z,2.68
2018-11-28T18:44:28.257Z,2.58
2018-11-28T18:46:58.157Z,2.53
2018-11-28T18:49:28.775Z,2.45
2018-11-28T18:51:59.107Z,2.31
2018-11-28T18:54:28.949Z,2.20
2018-11-28T18:56:58.881Z,2.17
2018-11-28T18:59:29.109Z,2.20
2018-11-28T19:02:00.543Z,2.24
2018-11-28T19:04:32.616Z,2.22
2018-11-28T19:07:03.047Z,2.20
2018-11-28T19:09:38.707Z,2.21
2018-11-28T19:12:10.051Z,2.14
2018-11-28T19:14:40.118Z,2.11
2018-11-28T19:17:10.402Z,2.08
2018-11-28T19:19:40.668Z,2.09
2018-11-28T19:22:10.852Z,2.15
2018-11-28T19:24:41.727Z,2.18
2018-11-28T19:27:13.426Z,2.21
2018-11-28T19:29:44.293Z,2.20
2018-11-28T19:32:16.374Z,2.19
2018-11-28T19:34:47.558Z,2.11
2018-11-28T19:37:19.000Z,2.10
2018-11-28T19:39:48.865Z,2.06
2018-11-28T19:42:19.028Z,2.03
2018-11-28T19:44:49.541Z,1.97
2018-11-28T19:47:19.693Z,1.95
2018-11-28T19:49:49.628Z,1.90
2018-11-28T19:52:20.038Z,1.81
2018-11-28T19:54:51.200Z,1.69
2018-11-28T19:57:22.462Z,1.58
2018-11-28T19:59:54.385Z,1.51
2018-11-28T20:02:24.842Z,1.46
2018-11-28T20:04:55.754Z,1.50
2018-11-28T20:07:26.089Z,1.53
2018-11-28T20:09:59.215Z,1.57
2018-11-28T20:12:29.096Z,1.61
2018-11-28T20:14:59.326Z,1.64
2018-11-28T20:17:32.634Z,1.65
2018-11-28T20:20:03.170Z,1.66
2018-11-28T20:22:34.997Z,1.67
2018-11-28T20:25:06.473Z,1.65
2018-11-28T20:27:37.544Z,1.67
2018-11-28T20:30:17.958Z,1.67
2018-11-28T20:32:49.464Z,1.55
2018-11-28T20:35:20.665Z,1.58
2018-11-28T20:37:50.568Z,1.57
2018-11-28T20:40:23.832Z,1.68
2018-11-28T20:42:55.352Z,1.72
2018-11-28T20:45:25.585Z,1.76
2018-11-28T20:47:55.459Z,1.81
2018-11-28T20:50:27.765Z,1.80
2018-11-28T20:53:00.601Z,1.87
2018-11-28T20:55:31.237Z,1.96
2018-11-28T20:58:01.243Z,1.98
2018-11-28T21:00:30.999Z,1.94
2018-11-28T21:03:01.555Z,1.94
2018-11-28T21:05:31.562Z,1.98
2018-11-28T21:08:01.679Z,2.05
2018-11-28T21:10:36.853Z,2.11
2018-11-28T21:13:08.047Z,2.16
2018-11-28T21:15:37.881Z,2.13
2018-11-28T21:18:09.373Z,2.17
2018-11-28T21:20:40.508Z,2.16
2018-11-28T21:23:11.850Z,2.18
2018-11-28T21:25:42.041Z,2.19
2018-11-28T21:28:11.983Z,2.15
2018-11-28T21:30:41.640Z,2.17
2018-11-28T21:33:12.452Z,2.12
2018-11-28T21:35:43.951Z,2.16
2018-11-28T21:38:13.777Z,2.17
2018-11-28T21:40:43.393Z,2.15
2018-11-28T21:43:12.917Z,2.17
2018-11-28T21:45:42.468Z,2.20
2018-11-28T21:48:15.464Z,2.25
2018-11-28T21:50:45.828Z,2.24
2018-11-28T21:53:16.127Z,2.22
2018-11-28T21:55:46.053Z,2.23
2018-11-28T21:58:15.760Z,2.25
2018-11-28T22:00:45.644Z,2.31
2018-11-28T22:03:15.401Z,2.33
2018-11-28T22:05:45.002Z,2.34
2018-11-28T22:08:15.314Z,2.38
2018-11-28T22:10:45.502Z,2.41
2018-11-28T22:13:15.674Z,2.46
2018-11-28T22:15:45.927Z,2.51
2018-11-28T22:18:15.554Z,2.51
2018-11-28T22:20:45.238Z,2.49
2018-11-28T22:23:15.600Z,2.55
2018-11-28T22:25:46.272Z,2.59
2018-11-28T22:28:16.074Z,2.66
2018-11-28T22:30:46.129Z,2.66
2018-11-28T22:33:16.319Z,2.68
2018-11-28T22:35:46.474Z,2.72
2018-11-28T22:38:15.754Z,2.76
2018-11-28T22:40:45.853Z,2.79
2018-11-28T22:43:15.203Z,2.82
2018-11-28T22:45:45.605Z,2.83
2018-11-28T22:48:15.139Z,2.78
2018-11-28T22:50:44.763Z,2.80
2018-11-28T22:53:14.167Z,2.81
2018-11-28T22:55:43.668Z,2.81
2018-11-28T22:58:13.398Z,2.84
2018-11-28T23:00:48.693Z,2.85
2018-11-28T23:03:18.790Z,2.83
2018-11-28T23:05:50.765Z,2.84
2018-11-28T23:08:21.122Z,2.85
2018-11-28T23:10:52.110Z,2.86
2018-11-28T23:13:23.895Z,2.86
2018-11-28T23:15:53.533Z,2.86
2018-11-28T23:18:23.570Z,2.87
2018-11-28T23:20:53.893Z,2.80
2018-11-28T23:23:23.253Z,2.74
2018-11-28T23:25:54.797Z,2.69
2018-11-28T23:28:24.195Z,2.69
2018-11-28T23:30:53.664Z,2.66
2018-11-28T23:33:23.028Z,2.73
2018-11-28T23:35:53.370Z,2.74
2018-11-28T23:38:24.158Z,2.76
2018-11-28T23:40:54.386Z,2.77
2018-11-28T23:43:24.410Z,2.80
2018-11-28T23:45:54.020Z,2.77
2018-11-28T23:48:24.226Z,2.78
2018-11-28T23:50:54.239Z,2.77
2018-11-28T23:53:24.219Z,2.78
2018-11-28T23:55:53.835Z,2.78
2018-11-28T23:58:23.543Z,2.80
